To NAV CANADA Home Page Login to a new session Search on AWWS site Feedback and Comments Disclaimer Vers la page française équivalente Tips FAQ What's new on the site To the Forecasts and Observations / NOTAM section To "File a Flight Plan" website Publications and other links Update of the User's profile FIC Telephone Numbers My Weather Data Folder Route Weather Data Regional Weather Data Local Weather Data To the Forecasts and Observations / NOTAM section
Request Generated 05/26/2015 at 03:28:20 UTC . Weather information available at that time is displayed.

METAR/TAF

LLOYDMINSTER/AB    (show WxCam)

METAR CYLL 260300Z 06003KT 15SM SCT120 BKN250 21/01 A2982 RMK AC3CI4
SLP098 DENSITY ALT 3400FT=
METAR CYLL 260200Z 03003KT 15SM SCT120 BKN250 22/01 A2982 RMK AC3CI4
SLP097 DENSITY ALT 3600FT=
METAR CYLL 260100Z 01005KT 15SM SCT120 BKN250 24/00 A2981 RMK AC3CI4
SLP096 DENSITY ALT 3800FT=

TAF CYLL 252338Z 2600/2612 30008KT P6SM SCT100
BECMG 2610/2612 33008KT
RMK NXT FCST BY 260600Z=
Your time UTC time
Weather data provided by Environment Canada and NAV CANADA